createdAt,value
2019-03-13T00:00:27.390Z,9.30
2019-03-13T00:02:56.499Z,9.20
2019-03-13T00:05:25.694Z,9.20
2019-03-13T00:07:54.632Z,9.20
2019-03-13T00:10:23.802Z,9.20
2019-03-13T00:12:53.103Z,9.20
2019-03-13T00:15:22.108Z,9.30
2019-03-13T00:17:51.002Z,9.30
2019-03-13T00:20:20.044Z,9.40
2019-03-13T00:22:49.238Z,9.50
2019-03-13T00:25:18.179Z,9.60
2019-03-13T00:27:47.220Z,9.70
2019-03-13T00:30:16.223Z,9.70
2019-03-13T00:32:45.255Z,9.80
2019-03-13T00:35:14.365Z,9.90
2019-03-13T00:37:43.296Z,9.90
2019-03-13T00:40:13.072Z,9.90
2019-03-13T00:42:42.268Z,9.90
2019-03-13T00:45:13.406Z,9.90
2019-03-13T00:47:42.718Z,9.90
2019-03-13T00:50:20.516Z,9.90
2019-03-13T00:52:49.612Z,9.80
2019-03-13T00:55:18.975Z,9.80
2019-03-13T00:57:48.148Z,9.70
2019-03-13T01:00:18.902Z,9.70
2019-03-13T01:02:56.345Z,9.60
2019-03-13T01:05:27.066Z,9.60
2019-03-13T01:07:55.955Z,9.60
2019-03-13T01:10:24.913Z,9.50
2019-03-13T01:12:53.825Z,9.50
2019-03-13T01:15:23.033Z,9.50
2019-03-13T01:17:52.049Z,9.40
2019-03-13T01:20:21.234Z,9.30
2019-03-13T01:22:50.151Z,9.30
2019-03-13T01:25:19.349Z,9.20
2019-03-13T01:27:48.452Z,9.10
2019-03-13T01:30:17.299Z,9.10
2019-03-13T01:32:57.163Z,9.10
2019-03-13T01:35:30.683Z,9.10
2019-03-13T01:37:59.905Z,9.10
2019-03-13T01:40:28.882Z,9.00
2019-03-13T01:42:57.733Z,8.90
2019-03-13T01:45:26.971Z,8.90
2019-03-13T01:47:56.117Z,8.80
2019-03-13T01:50:25.220Z,8.70
2019-03-13T01:52:54.109Z,8.60
2019-03-13T01:55:23.455Z,8.60
2019-03-13T01:57:52.536Z,8.50
2019-03-13T02:00:21.624Z,8.50
2019-03-13T02:02:50.879Z,8.40
2019-03-13T02:05:19.748Z,8.40
2019-03-13T02:07:48.844Z,8.30
2019-03-13T02:10:17.851Z,8.20
2019-03-13T02:12:46.869Z,8.20
2019-03-13T02:15:19.144Z,8.10
2019-03-13T02:17:48.482Z,8.10
2019-03-13T02:20:17.529Z,8.00
2019-03-13T02:22:46.567Z,7.80
2019-03-13T02:25:17.252Z,7.80
2019-03-13T02:27:46.229Z,7.70
2019-03-13T02:30:18.130Z,7.70
2019-03-13T02:32:47.425Z,7.70
2019-03-13T02:35:16.737Z,7.60
2019-03-13T02:37:45.677Z,7.50
2019-03-13T02:40:15.675Z,7.40
2019-03-13T02:42:44.563Z,7.30
2019-03-13T02:45:14.963Z,7.30
2019-03-13T02:47:44.112Z,7.30
2019-03-13T02:50:15.195Z,7.30
2019-03-13T02:52:44.128Z,7.20
2019-03-13T02:55:13.357Z,7.20
2019-03-13T02:57:42.666Z,7.10
2019-03-13T03:00:37.880Z,6.90
2019-03-13T03:03:24.151Z,6.80
2019-03-13T03:05:53.665Z,6.80
2019-03-13T03:08:22.539Z,6.70
2019-03-13T03:10:52.029Z,6.70
2019-03-13T03:13:21.498Z,6.50
2019-03-13T03:15:50.572Z,6.40
2019-03-13T03:18:19.748Z,6.30
2019-03-13T03:20:48.908Z,6.30
2019-03-13T03:23:18.072Z,6.40
2019-03-13T03:25:46.927Z,6.40
2019-03-13T03:28:16.086Z,6.30
2019-03-13T03:30:45.159Z,6.30
2019-03-13T03:33:14.207Z,6.30
2019-03-13T03:35:43.469Z,6.30
2019-03-13T03:38:12.333Z,6.30
2019-03-13T03:40:41.425Z,6.30
2019-03-13T03:43:10.805Z,6.30
2019-03-13T03:45:39.832Z,6.30
2019-03-13T03:48:08.915Z,6.40
2019-03-13T03:50:38.026Z,6.40
2019-03-13T03:53:07.003Z,6.50
2019-03-13T03:55:36.066Z,6.50
2019-03-13T03:58:05.371Z,6.60
2019-03-13T04:00:34.616Z,6.60
2019-03-13T04:03:05.294Z,6.60
2019-03-13T04:05:34.877Z,6.60
2019-03-13T04:08:03.702Z,6.60
2019-03-13T04:10:32.844Z,6.60
2019-03-13T04:13:01.823Z,6.60
2019-03-13T04:15:30.753Z,6.60
2019-03-13T04:17:59.709Z,6.50
2019-03-13T04:20:28.909Z,6.50
2019-03-13T04:22:57.986Z,6.50
2019-03-13T04:25:30.234Z,6.50
2019-03-13T04:27:59.350Z,6.50
2019-03-13T04:30:28.272Z,6.50
2019-03-13T04:32:57.603Z,6.50
2019-03-13T04:35:26.559Z,6.50
2019-03-13T04:37:55.586Z,6.50
2019-03-13T04:40:24.758Z,6.50
2019-03-13T04:42:53.974Z,6.50
2019-03-13T04:45:23.253Z,6.50
2019-03-13T04:47:52.269Z,6.50
2019-03-13T04:50:21.207Z,6.50
2019-03-13T04:52:50.162Z,6.50
2019-03-13T04:55:19.067Z,6.50
2019-03-13T04:57:47.997Z,6.50
2019-03-13T05:00:18.271Z,6.50
2019-03-13T05:02:47.152Z,6.50
2019-03-13T05:05:42.062Z,6.50
2019-03-13T05:08:14.499Z,6.50
2019-03-13T05:10:43.349Z,6.50
2019-03-13T05:13:12.364Z,6.40
2019-03-13T05:15:41.262Z,6.40
2019-03-13T05:18:10.214Z,6.40
2019-03-13T05:20:40.350Z,6.40
2019-03-13T05:23:09.273Z,6.40
2019-03-13T05:25:38.303Z,6.40
2019-03-13T05:28:07.572Z,6.30
2019-03-13T05:30:36.690Z,6.30
2019-03-13T05:33:06.194Z,6.30
2019-03-13T05:35:35.257Z,6.30
2019-03-13T05:38:08.967Z,6.20
2019-03-13T05:40:37.945Z,6.20
2019-03-13T05:43:07.300Z,6.30
2019-03-13T05:45:36.143Z,6.30
2019-03-13T05:48:05.092Z,6.20
2019-03-13T05:50:33.923Z,6.20
2019-03-13T05:53:02.724Z,6.20
2019-03-13T05:55:31.634Z,6.20
2019-03-13T05:58:00.621Z,6.20
2019-03-13T06:00:30.033Z,6.10
2019-03-13T06:02:59.047Z,6.10
2019-03-13T06:05:27.835Z,6.10
2019-03-13T06:07:56.723Z,6.00
2019-03-13T06:10:25.607Z,6.00
2019-03-13T06:12:54.396Z,5.90
2019-03-13T06:15:23.241Z,5.90
2019-03-13T06:17:52.446Z,5.90
2019-03-13T06:20:21.446Z,5.90
2019-03-13T06:22:50.478Z,5.90
2019-03-13T06:25:19.293Z,5.90
2019-03-13T06:27:48.314Z,5.90
2019-03-13T06:30:21.901Z,5.90
2019-03-13T06:32:50.764Z,5.90
2019-03-13T06:35:19.665Z,5.90
2019-03-13T06:37:48.595Z,5.80
2019-03-13T06:40:19.312Z,5.80
2019-03-13T06:42:48.485Z,5.80
2019-03-13T06:45:17.349Z,5.80
2019-03-13T06:47:46.205Z,5.90
2019-03-13T06:50:25.477Z,5.90
2019-03-13T06:52:54.473Z,5.80
2019-03-13T06:55:23.274Z,5.90
2019-03-13T06:57:52.218Z,5.90
2019-03-13T07:00:44.411Z,6.00
2019-03-13T07:03:31.125Z,6.00
2019-03-13T07:06:04.205Z,6.00
2019-03-13T07:08:50.906Z,6.00
2019-03-13T07:11:30.288Z,6.10
2019-03-13T07:14:16.849Z,6.10
2019-03-13T07:16:50.035Z,6.20
2019-03-13T07:19:35.900Z,6.30
2019-03-13T07:22:12.337Z,6.50
2019-03-13T07:25:02.675Z,6.80
2019-03-13T07:27:33.223Z,6.90
2019-03-13T07:30:03.820Z,6.90
2019-03-13T07:32:40.033Z,6.80
2019-03-13T07:35:17.050Z,6.80
2019-03-13T07:38:05.390Z,6.70
2019-03-13T07:40:38.860Z,6.80
2019-03-13T07:43:25.849Z,6.80
2019-03-13T07:46:12.871Z,6.80
2019-03-13T07:49:01.577Z,6.70
2019-03-13T07:51:35.107Z,6.90
2019-03-13T07:54:21.994Z,6.80
2019-03-13T07:56:55.540Z,6.70
2019-03-13T07:59:35.383Z,6.70
2019-03-13T08:02:08.719Z,6.80
2019-03-13T08:04:51.911Z,6.80
2019-03-13T08:07:37.161Z,7.00
2019-03-13T08:10:10.877Z,7.10
2019-03-13T08:12:41.298Z,7.10
2019-03-13T08:15:30.117Z,7.20
2019-03-13T08:18:00.570Z,7.40
2019-03-13T08:20:37.108Z,7.50
2019-03-13T08:23:16.543Z,7.70
2019-03-13T08:26:03.526Z,7.70
2019-03-13T08:28:33.956Z,7.60
2019-03-13T08:31:07.642Z,7.40
2019-03-13T08:33:57.653Z,7.30
2019-03-13T08:36:34.583Z,7.10
2019-03-13T08:39:06.280Z,6.90
2019-03-13T08:41:36.779Z,7.10
2019-03-13T08:44:22.900Z,7.20
2019-03-13T08:47:09.665Z,7.20
2019-03-13T08:49:40.104Z,7.30
2019-03-13T08:52:13.237Z,7.20
2019-03-13T08:54:43.733Z,7.20
2019-03-13T08:57:17.327Z,7.20
2019-03-13T08:59:57.234Z,7.10
2019-03-13T09:02:36.554Z,7.10
2019-03-13T09:05:08.350Z,7.10
2019-03-13T09:07:38.849Z,7.10
2019-03-13T09:10:28.615Z,7.00
2019-03-13T09:13:01.717Z,7.00
2019-03-13T09:15:37.345Z,7.00
2019-03-13T09:18:16.701Z,7.00
2019-03-13T09:20:53.362Z,6.70
2019-03-13T09:23:36.226Z,6.70
2019-03-13T09:26:18.711Z,6.70
2019-03-13T09:29:05.612Z,6.70
2019-03-13T09:31:36.099Z,6.60
2019-03-13T09:34:06.651Z,6.70
2019-03-13T09:36:52.036Z,6.70
2019-03-13T09:39:22.500Z,6.70
2019-03-13T09:41:52.934Z,6.50
2019-03-13T09:44:32.787Z,6.60
2019-03-13T09:47:05.979Z,6.50
2019-03-13T09:49:45.366Z,6.50
2019-03-13T09:52:15.964Z,6.60
2019-03-13T09:54:55.620Z,6.70
2019-03-13T09:57:28.998Z,6.80
2019-03-13T09:59:59.514Z,6.80
2019-03-13T10:02:32.961Z,6.90
2019-03-13T10:05:03.504Z,6.90
2019-03-13T10:07:34.460Z,7.00
2019-03-13T10:10:07.527Z,7.00
2019-03-13T10:12:41.132Z,7.10
2019-03-13T10:15:24.001Z,7.10
2019-03-13T10:18:00.625Z,7.10
2019-03-13T10:20:36.898Z,7.10
2019-03-13T10:23:16.682Z,7.20
2019-03-13T10:25:49.199Z,7.10
2019-03-13T10:28:19.397Z,7.00
2019-03-13T10:30:53.311Z,6.90
2019-03-13T10:33:33.027Z,7.00
2019-03-13T10:36:03.584Z,7.10
2019-03-13T10:38:34.082Z,7.20
2019-03-13T10:41:20.785Z,7.50
2019-03-13T10:43:57.212Z,7.90
2019-03-13T10:46:27.747Z,8.20
2019-03-13T10:49:14.509Z,8.60
2019-03-13T10:52:01.377Z,8.90
2019-03-13T10:54:44.067Z,9.30
2019-03-13T10:57:31.045Z,9.60
2019-03-13T11:00:07.832Z,9.90
2019-03-13T11:02:41.280Z,9.40
2019-03-13T11:05:14.807Z,9.60
2019-03-13T11:07:45.336Z,10.00
2019-03-13T11:10:30.880Z,10.10
2019-03-13T11:13:19.658Z,10.20
2019-03-13T11:16:02.365Z,10.50
2019-03-13T11:18:33.150Z,10.50
2019-03-13T11:21:12.835Z,10.90
2019-03-13T11:23:43.332Z,11.40
2019-03-13T11:26:30.122Z,11.80
2019-03-13T11:29:01.576Z,11.80
2019-03-13T11:31:43.994Z,11.70
2019-03-13T11:34:14.726Z,11.30
2019-03-13T11:36:50.994Z,11.50
2019-03-13T11:39:21.559Z,11.30
2019-03-13T11:42:07.011Z,11.10
2019-03-13T11:44:55.827Z,11.20
2019-03-13T11:47:41.461Z,11.10
2019-03-13T11:50:03.822Z,11.20
2019-03-13T11:52:49.363Z,11.30
2019-03-13T11:55:38.282Z,11.50
2019-03-13T11:58:20.776Z,11.90
2019-03-13T12:00:57.242Z,12.30
2019-03-13T12:03:30.475Z,12.50
2019-03-13T12:06:19.131Z,12.90
2019-03-13T12:09:05.762Z,13.10
2019-03-13T12:11:52.749Z,12.70
2019-03-13T12:14:29.133Z,12.10
2019-03-13T12:17:11.832Z,11.50
2019-03-13T12:19:58.820Z,11.10
2019-03-13T12:22:38.602Z,10.10
2019-03-13T12:25:12.236Z,9.70
2019-03-13T12:27:59.134Z,9.40
2019-03-13T12:30:29.602Z,9.10
2019-03-13T12:33:15.112Z,9.30
2019-03-13T12:36:00.894Z,9.80
2019-03-13T12:38:47.646Z,9.80
2019-03-13T12:41:34.600Z,9.80
2019-03-13T12:44:07.755Z,9.80
2019-03-13T12:46:47.069Z,10.20
2019-03-13T12:49:17.500Z,10.30
2019-03-13T12:51:56.752Z,9.70
2019-03-13T12:54:29.994Z,9.90
2019-03-13T12:57:18.698Z,10.50
2019-03-13T13:00:04.248Z,10.70
2019-03-13T13:02:49.649Z,10.60
2019-03-13T13:05:32.477Z,10.40
2019-03-13T13:08:19.253Z,10.00
2019-03-13T13:10:50.235Z,9.60
2019-03-13T13:13:36.985Z,10.30
2019-03-13T13:16:07.514Z,10.50
2019-03-13T13:18:44.076Z,11.30
2019-03-13T13:21:12.957Z,11.10
2019-03-13T13:23:41.844Z,11.40
2019-03-13T13:26:10.849Z,11.70
2019-03-13T13:28:39.763Z,12.00
2019-03-13T13:31:08.652Z,12.10
2019-03-13T13:33:37.575Z,12.20
2019-03-13T13:36:06.703Z,12.20
2019-03-13T13:38:35.537Z,12.00
2019-03-13T13:41:04.410Z,11.90
2019-03-13T13:43:33.293Z,12.30
2019-03-13T13:46:11.669Z,12.40
2019-03-13T13:48:40.675Z,12.00
2019-03-13T13:51:09.497Z,12.00
2019-03-13T13:53:38.323Z,12.70
2019-03-13T13:56:07.240Z,12.40
2019-03-13T13:58:36.196Z,12.70
2019-03-13T14:01:05.156Z,12.70
2019-03-13T14:03:34.076Z,12.20
2019-03-13T14:06:03.123Z,11.60
2019-03-13T14:08:32.174Z,11.10
2019-03-13T14:11:02.069Z,10.60
2019-03-13T14:13:31.016Z,10.00
2019-03-13T14:15:59.944Z,9.90
2019-03-13T14:18:28.774Z,9.30
2019-03-13T14:20:57.590Z,8.80
2019-03-13T14:23:26.519Z,8.90
2019-03-13T14:25:55.630Z,9.40
2019-03-13T14:28:24.597Z,10.00
2019-03-13T14:30:53.896Z,9.80
2019-03-13T14:33:22.719Z,9.70
2019-03-13T14:35:51.610Z,9.90
2019-03-13T14:38:20.480Z,9.80
2019-03-13T14:40:49.356Z,8.80
2019-03-13T14:43:18.600Z,8.90
2019-03-13T14:45:47.593Z,9.50
2019-03-13T14:48:16.390Z,10.00
2019-03-13T14:50:45.273Z,10.30
2019-03-13T14:53:14.265Z,10.20
2019-03-13T14:55:43.230Z,10.40
2019-03-13T14:58:12.183Z,10.80
2019-03-13T15:00:41.208Z,10.40
2019-03-13T15:03:10.205Z,10.00
2019-03-13T15:05:39.064Z,9.90
2019-03-13T15:08:07.871Z,9.90
2019-03-13T15:10:36.838Z,9.80
2019-03-13T15:13:06.880Z,9.70
2019-03-13T15:15:35.827Z,9.40
2019-03-13T15:18:04.749Z,9.20
2019-03-13T15:20:33.757Z,9.00
2019-03-13T15:23:02.737Z,8.90
2019-03-13T15:25:31.522Z,8.80
2019-03-13T15:28:00.612Z,8.70
2019-03-13T15:30:33.724Z,8.80
2019-03-13T15:33:02.661Z,8.80
2019-03-13T15:35:31.627Z,8.70
2019-03-13T15:38:00.538Z,8.70
2019-03-13T15:40:29.428Z,8.60
2019-03-13T15:42:58.371Z,8.40
2019-03-13T15:45:29.611Z,8.40
2019-03-13T15:47:58.426Z,8.40
2019-03-13T15:50:27.771Z,8.40
2019-03-13T15:52:56.780Z,8.30
2019-03-13T15:55:25.721Z,8.20
2019-03-13T15:57:54.648Z,8.10
2019-03-13T16:00:30.618Z,7.90
2019-03-13T16:02:59.583Z,7.90
2019-03-13T16:05:28.412Z,7.80
2019-03-13T16:07:57.908Z,7.40
2019-03-13T16:10:26.729Z,7.30
2019-03-13T16:12:57.430Z,7.10
2019-03-13T16:15:31.756Z,7.10
2019-03-13T16:18:00.671Z,7.20
2019-03-13T16:20:29.811Z,7.30
2019-03-13T16:23:02.151Z,7.30
2019-03-13T16:25:31.172Z,7.30
2019-03-13T16:28:00.052Z,7.10
2019-03-13T16:30:31.056Z,7.10
2019-03-13T16:32:59.855Z,7.00
2019-03-13T16:35:28.701Z,6.70
2019-03-13T16:37:57.507Z,6.60
2019-03-13T16:40:26.516Z,6.60
2019-03-13T16:42:55.327Z,6.50
2019-03-13T16:45:24.372Z,6.50
2019-03-13T16:47:53.235Z,6.50
2019-03-13T16:50:24.521Z,6.50
2019-03-13T16:52:53.472Z,6.40
2019-03-13T16:55:22.350Z,6.40
2019-03-13T16:57:51.187Z,6.40
2019-03-13T17:00:27.604Z,6.40
2019-03-13T17:02:56.654Z,6.30
2019-03-13T17:05:25.565Z,6.00
2019-03-13T17:07:54.366Z,5.90
2019-03-13T17:10:25.493Z,5.90
2019-03-13T17:12:54.486Z,5.70
2019-03-13T17:15:26.552Z,5.90
2019-03-13T17:17:55.492Z,5.90
2019-03-13T17:20:41.469Z,5.90
2019-03-13T17:23:10.697Z,5.90
2019-03-13T17:25:39.520Z,5.90
2019-03-13T17:28:08.696Z,5.90
2019-03-13T17:30:37.666Z,5.70
2019-03-13T17:33:06.562Z,5.70
2019-03-13T17:35:35.574Z,5.80
2019-03-13T17:38:04.551Z,5.80
2019-03-13T17:40:34.003Z,5.80
2019-03-13T17:43:02.970Z,5.90
2019-03-13T17:45:32.018Z,5.90
2019-03-13T17:48:00.986Z,5.80
2019-03-13T17:50:29.922Z,5.80
2019-03-13T17:52:58.896Z,5.70
2019-03-13T17:55:27.962Z,5.50
2019-03-13T17:57:56.797Z,5.40
2019-03-13T18:00:30.732Z,5.50
2019-03-13T18:02:59.714Z,5.40
2019-03-13T18:05:28.715Z,5.40
2019-03-13T18:07:57.627Z,5.30
2019-03-13T18:10:26.875Z,5.20
2019-03-13T18:12:55.934Z,5.20
2019-03-13T18:15:28.188Z,5.10
2019-03-13T18:17:57.064Z,5.10
2019-03-13T18:20:26.062Z,4.90
2019-03-13T18:22:54.957Z,5.00
2019-03-13T18:25:23.933Z,5.00
2019-03-13T18:27:52.754Z,5.00
2019-03-13T18:30:23.447Z,5.00
2019-03-13T18:32:52.292Z,5.00
2019-03-13T18:35:21.119Z,4.90
2019-03-13T18:37:49.928Z,4.90
2019-03-13T18:40:22.037Z,5.00
2019-03-13T18:42:51.052Z,5.10
2019-03-13T18:45:33.024Z,5.10
2019-03-13T18:48:01.988Z,5.20
2019-03-13T18:50:31.049Z,5.10
2019-03-13T18:52:59.881Z,5.10
2019-03-13T18:55:36.152Z,5.20
2019-03-13T18:58:05.014Z,5.20
2019-03-13T19:00:35.969Z,5.20
2019-03-13T19:03:06.998Z,5.30
2019-03-13T19:05:37.153Z,5.40
2019-03-13T19:08:06.486Z,5.40
2019-03-13T19:10:35.570Z,5.30
2019-03-13T19:13:04.952Z,5.20
2019-03-13T19:15:33.901Z,5.30
2019-03-13T19:18:02.701Z,5.20
2019-03-13T19:20:31.608Z,5.30
2019-03-13T19:23:00.601Z,5.30
2019-03-13T19:25:30.185Z,5.30
2019-03-13T19:27:59.209Z,5.30
2019-03-13T19:30:33.160Z,5.40
2019-03-13T19:33:02.305Z,5.40
2019-03-13T19:35:31.256Z,5.40
2019-03-13T19:38:05.835Z,5.40
2019-03-13T19:40:34.971Z,5.40
2019-03-13T19:43:03.998Z,5.50
2019-03-13T19:45:40.825Z,5.50
2019-03-13T19:48:10.189Z,5.50
2019-03-13T19:50:39.108Z,5.40
2019-03-13T19:53:08.115Z,5.50
2019-03-13T19:55:37.167Z,5.50
2019-03-13T19:58:06.188Z,5.50
2019-03-13T20:00:35.060Z,5.40
2019-03-13T20:03:09.714Z,5.30
2019-03-13T20:05:45.147Z,5.40
2019-03-13T20:08:09.572Z,5.30
2019-03-13T20:10:38.432Z,5.30
2019-03-13T20:13:07.598Z,5.30
2019-03-13T20:15:36.891Z,5.30
2019-03-13T20:18:05.867Z,5.30
2019-03-13T20:20:34.684Z,5.20
2019-03-13T20:23:06.202Z,5.20
2019-03-13T20:25:35.203Z,5.30
2019-03-13T20:28:04.242Z,5.20
2019-03-13T20:30:33.217Z,5.20
2019-03-13T20:33:02.195Z,5.10
2019-03-13T20:35:31.581Z,5.10
2019-03-13T20:38:00.747Z,5.20
2019-03-13T20:40:31.622Z,5.20
2019-03-13T20:43:02.254Z,5.30
2019-03-13T20:45:31.425Z,5.40
2019-03-13T20:48:00.337Z,5.30
2019-03-13T20:50:36.406Z,5.40
2019-03-13T20:52:59.996Z,5.40
2019-03-13T20:55:29.107Z,5.40
2019-03-13T20:57:58.178Z,5.40
2019-03-13T21:00:27.961Z,5.40
2019-03-13T21:02:59.630Z,5.40
2019-03-13T21:05:28.704Z,5.40
2019-03-13T21:07:57.949Z,5.40
2019-03-13T21:10:26.966Z,5.20
2019-03-13T21:12:55.984Z,4.90
2019-03-13T21:15:26.133Z,4.80
2019-03-13T21:17:56.615Z,4.70
2019-03-13T21:20:25.770Z,4.70
2019-03-13T21:22:57.727Z,4.60
2019-03-13T21:25:28.111Z,4.50
2019-03-13T21:27:57.241Z,4.40
2019-03-13T21:30:29.598Z,4.40
2019-03-13T21:32:58.543Z,4.50
2019-03-13T21:35:27.649Z,4.60
2019-03-13T21:37:56.900Z,4.60
2019-03-13T21:40:27.040Z,4.60
2019-03-13T21:42:56.022Z,4.60
2019-03-13T21:45:25.567Z,4.60
2019-03-13T21:47:54.450Z,4.60
2019-03-13T21:50:23.840Z,4.60
2019-03-13T21:52:53.108Z,4.60
2019-03-13T21:55:22.107Z,4.70
2019-03-13T21:57:52.234Z,4.60
2019-03-13T22:00:26.690Z,4.60
2019-03-13T22:02:55.815Z,4.60
2019-03-13T22:05:26.563Z,4.50
2019-03-13T22:07:55.538Z,4.60
2019-03-13T22:10:24.678Z,4.40
2019-03-13T22:12:53.880Z,4.30
2019-03-13T22:15:23.634Z,4.30
2019-03-13T22:17:52.552Z,4.20
2019-03-13T22:20:21.555Z,4.20
2019-03-13T22:22:50.711Z,4.20
2019-03-13T22:25:20.091Z,4.20
2019-03-13T22:27:49.232Z,4.20
2019-03-13T22:30:23.468Z,4.10
2019-03-13T22:32:52.559Z,4.10
2019-03-13T22:35:21.419Z,4.10
2019-03-13T22:37:50.400Z,4.10
2019-03-13T22:40:19.338Z,4.10
2019-03-13T22:42:48.272Z,4.10
2019-03-13T22:45:21.184Z,4.10
2019-03-13T22:47:50.023Z,4.20
2019-03-13T22:50:21.267Z,4.20
2019-03-13T22:52:50.099Z,4.20
2019-03-13T22:55:19.133Z,4.30
2019-03-13T22:57:48.119Z,4.30
2019-03-13T23:00:51.744Z,4.20
2019-03-13T23:03:21.871Z,4.30
2019-03-13T23:05:51.113Z,4.30
2019-03-13T23:08:20.333Z,4.30
2019-03-13T23:10:49.698Z,4.30
2019-03-13T23:13:18.771Z,4.40
2019-03-13T23:15:47.777Z,4.40
2019-03-13T23:18:18.267Z,4.40
2019-03-13T23:20:47.379Z,4.40
2019-03-13T23:23:16.378Z,4.50
2019-03-13T23:25:45.361Z,4.50
2019-03-13T23:28:14.275Z,4.50
2019-03-13T23:30:43.143Z,4.60
2019-03-13T23:33:12.089Z,4.60
2019-03-13T23:35:41.181Z,4.60
2019-03-13T23:38:10.175Z,4.70
2019-03-13T23:40:39.312Z,4.70
2019-03-13T23:43:08.196Z,4.60
2019-03-13T23:45:37.020Z,4.50
2019-03-13T23:48:06.068Z,4.50
2019-03-13T23:50:35.131Z,4.40
2019-03-13T23:53:04.185Z,4.40
2019-03-13T23:55:32.986Z,4.30
2019-03-13T23:58:01.892Z,4.20
